createdAt,value
2022-08-12T00:00:48.437Z,97144.91
2022-08-12T00:03:33.624Z,97133.31
2022-08-12T00:06:19.417Z,97145.19
2022-08-12T00:09:04.543Z,97132.25
2022-08-12T00:11:50.447Z,97141.66
2022-08-12T00:14:36.850Z,97141.59
2022-08-12T00:17:23.376Z,97140.34
2022-08-12T00:20:09.493Z,97140.09
2022-08-12T00:22:59.151Z,97143.06
2022-08-12T00:26:21.018Z,97133.13
2022-08-12T00:29:03.025Z,97134.97
2022-08-12T00:31:48.301Z,97137.09
2022-08-12T00:34:37.665Z,97139.81
2022-08-12T00:37:23.535Z,97135.69
2022-08-12T00:40:10.834Z,97139.97
2022-08-12T00:42:41.609Z,97137.91
2022-08-12T00:45:09.129Z,97140.97
2022-08-12T00:47:36.286Z,97134.66
2022-08-12T00:50:04.617Z,97135.84
2022-08-12T00:52:31.669Z,97142.88
2022-08-12T00:55:00.934Z,97132.94
2022-08-12T00:57:35.798Z,97131.66
2022-08-12T01:00:10.554Z,97138.69
2022-08-12T01:02:46.030Z,97137.28
2022-08-12T01:05:34.615Z,97137.91
2022-08-12T01:08:20.381Z,97131.66
2022-08-12T01:11:06.936Z,97141.88
2022-08-12T01:13:36.126Z,97146.06
2022-08-12T01:16:05.312Z,97135.78
2022-08-12T01:18:35.357Z,97144.22
2022-08-12T01:21:16.831Z,97135.91
2022-08-12T01:23:48.710Z,97146.38
2022-08-12T01:26:21.105Z,97146.00
2022-08-12T01:28:50.318Z,97146.09
2022-08-12T01:31:18.538Z,97140.66
2022-08-12T01:34:36.658Z,97139.13
2022-08-12T01:37:02.438Z,97143.31
2022-08-12T01:39:34.505Z,97140.50
2022-08-12T01:42:10.671Z,97147.50
2022-08-12T01:44:37.793Z,97143.38
2022-08-12T01:47:19.266Z,97142.59
2022-08-12T01:50:09.784Z,97137.06
2022-08-12T01:53:02.647Z,97141.78
2022-08-12T01:55:33.431Z,97132.06
2022-08-12T01:58:11.747Z,97139.75
2022-08-12T02:00:55.324Z,97138.25
2022-08-12T02:04:00.318Z,97132.00
2022-08-12T02:06:54.755Z,97136.59
2022-08-12T02:09:47.655Z,97125.19
2022-08-12T02:12:34.700Z,97125.19
2022-08-12T02:15:22.200Z,97129.94
2022-08-12T02:18:01.531Z,97130.28
2022-08-12T02:20:52.773Z,97125.28
2022-08-12T02:23:23.377Z,97125.75
2022-08-12T02:25:49.965Z,97122.28
2022-08-12T02:28:16.622Z,97114.19
2022-08-12T02:30:43.971Z,97120.69
2022-08-12T02:33:11.492Z,97115.69
2022-08-12T02:35:39.764Z,97118.09
2022-08-12T02:38:10.478Z,97108.91
2022-08-12T02:40:38.982Z,97111.78
2022-08-12T02:43:22.799Z,97109.63
2022-08-12T02:45:57.055Z,97112.97
2022-08-12T02:48:38.973Z,97110.78
2022-08-12T02:51:09.246Z,97106.16
2022-08-12T02:53:39.758Z,97109.63
2022-08-12T02:56:06.757Z,97104.53
2022-08-12T02:58:41.130Z,97108.41
2022-08-12T03:01:13.712Z,97104.81
2022-08-12T03:03:41.423Z,97105.44
2022-08-12T03:06:21.452Z,97102.50
2022-08-12T03:08:53.583Z,97105.19
2022-08-12T03:11:32.545Z,97098.78
2022-08-12T03:14:03.419Z,97100.13
2022-08-12T03:16:33.093Z,97097.97
2022-08-12T03:19:00.610Z,97095.94
2022-08-12T03:22:05.605Z,97102.69
2022-08-12T03:24:17.259Z,97098.44
2022-08-12T03:26:44.870Z,97101.81
2022-08-12T03:29:12.303Z,97100.13
2022-08-12T03:31:39.040Z,97102.50
2022-08-12T03:34:08.976Z,97107.31
2022-08-12T03:36:38.435Z,97103.78
2022-08-12T03:39:17.613Z,97111.97
2022-08-12T03:42:09.318Z,97113.28
2022-08-12T03:45:00.835Z,97115.88
2022-08-12T03:48:08.610Z,97121.50
2022-08-12T03:50:56.136Z,97120.06
2022-08-12T03:53:44.814Z,97118.34
2022-08-12T03:56:30.509Z,97120.94
2022-08-12T03:59:17.766Z,97118.63
2022-08-12T04:01:44.615Z,97113.91
2022-08-12T04:04:11.251Z,97118.78
2022-08-12T04:06:42.861Z,97118.53
2022-08-12T04:09:14.572Z,97115.03
2022-08-12T04:12:03.182Z,97114.34
2022-08-12T04:14:30.555Z,97117.00
2022-08-12T04:16:57.410Z,97114.06
2022-08-12T04:19:25.177Z,97121.63
2022-08-12T04:22:02.405Z,97122.25
2022-08-12T04:24:35.345Z,97121.53
2022-08-12T04:27:05.690Z,97120.09
2022-08-12T04:30:17.244Z,97121.63
2022-08-12T04:32:19.376Z,97127.34
2022-08-12T04:34:46.368Z,97130.72
2022-08-12T04:37:13.462Z,97125.19
2022-08-12T04:39:40.503Z,97127.50
2022-08-12T04:42:07.445Z,97133.75
2022-08-12T04:44:34.110Z,97126.91
2022-08-12T04:47:00.929Z,97123.59
2022-08-12T04:49:28.027Z,97122.38
2022-08-12T04:51:59.203Z,97120.41
2022-08-12T04:54:27.420Z,97128.16
2022-08-12T04:57:03.737Z,97131.13
2022-08-12T04:59:46.637Z,97127.09
2022-08-12T05:02:21.255Z,97128.19
2022-08-12T05:04:51.775Z,97124.91
2022-08-12T05:07:20.073Z,97126.50
2022-08-12T05:10:01.918Z,97130.13
2022-08-12T05:12:37.510Z,97142.19
2022-08-12T05:15:19.050Z,97128.63
2022-08-12T05:17:52.878Z,97142.00
2022-08-12T05:20:20.838Z,97138.63
2022-08-12T05:22:47.642Z,97139.50
2022-08-12T05:25:18.409Z,97132.28
2022-08-12T05:27:58.536Z,97141.03
2022-08-12T05:30:26.373Z,97136.72
2022-08-12T05:32:55.575Z,97143.41
2022-08-12T05:35:27.095Z,97141.84
2022-08-12T05:38:13.816Z,97148.59
2022-08-12T05:40:41.976Z,97152.03
2022-08-12T05:43:09.032Z,97152.50
2022-08-12T05:45:35.768Z,97150.25
2022-08-12T05:48:02.767Z,97157.63
2022-08-12T05:50:29.693Z,97157.22
2022-08-12T05:52:56.332Z,97159.03
2022-08-12T05:55:25.866Z,97151.09
2022-08-12T05:57:55.971Z,97151.50
2022-08-12T06:00:25.775Z,97158.28
2022-08-12T06:03:01.126Z,97161.50
2022-08-12T06:05:51.862Z,97152.16
2022-08-12T06:08:21.590Z,97152.03
2022-08-12T06:10:50.398Z,97158.53
2022-08-12T06:13:28.626Z,97151.94
2022-08-12T06:16:08.445Z,97151.72
2022-08-12T06:18:35.525Z,97144.44
2022-08-12T06:21:02.555Z,97153.19
2022-08-12T06:23:29.991Z,97150.69
2022-08-12T06:25:57.249Z,97148.31
2022-08-12T06:28:24.223Z,97143.09
2022-08-12T06:31:26.942Z,97143.34
2022-08-12T06:34:00.624Z,97142.47
2022-08-12T06:36:29.454Z,97147.78
2022-08-12T06:38:59.348Z,97148.84
2022-08-12T06:42:05.062Z,97151.94
2022-08-12T06:44:42.652Z,97157.19
2022-08-12T06:47:09.388Z,97165.03
2022-08-12T06:49:36.950Z,97158.34
2022-08-12T06:52:04.935Z,97162.75
2022-08-12T06:54:33.330Z,97156.84
2022-08-12T06:58:05.070Z,97157.22
2022-08-12T06:59:47.873Z,97161.78
2022-08-12T07:02:14.846Z,97162.69
2022-08-12T07:04:42.173Z,97159.53
2022-08-12T07:07:09.684Z,97161.97
2022-08-12T07:10:07.088Z,97163.59
2022-08-12T07:12:29.471Z,97155.59
2022-08-12T07:14:59.644Z,97160.66
2022-08-12T07:17:26.474Z,97166.75
2022-08-12T07:19:53.889Z,97162.69
2022-08-12T07:22:23.459Z,97164.25
2022-08-12T07:25:10.285Z,97157.47
2022-08-12T07:27:40.959Z,97162.56
2022-08-12T07:30:09.942Z,97153.69
2022-08-12T07:32:37.166Z,97155.22
2022-08-12T07:35:04.232Z,97159.63
2022-08-12T07:37:31.626Z,97145.88
2022-08-12T07:40:00.534Z,97153.75
2022-08-12T07:42:29.366Z,97149.13
2022-08-12T07:44:56.799Z,97149.34
2022-08-12T07:47:24.206Z,97144.66
2022-08-12T07:50:04.695Z,97156.00
2022-08-12T07:52:37.222Z,97143.69
2022-08-12T07:55:04.610Z,97148.06
2022-08-12T07:57:34.641Z,97147.56
2022-08-12T08:00:05.964Z,97145.63
2022-08-12T08:02:36.401Z,97145.09
2022-08-12T08:05:04.619Z,97148.81
2022-08-12T08:07:31.724Z,97147.00
2022-08-12T08:10:04.974Z,97149.34
2022-08-12T08:12:49.965Z,97144.03
2022-08-12T08:15:16.737Z,97151.91
2022-08-12T08:18:01.723Z,97152.84
2022-08-12T08:20:41.172Z,97162.06
2022-08-12T08:23:46.227Z,97150.97
2022-08-12T08:26:15.469Z,97147.59
2022-08-12T08:28:43.099Z,97145.66
2022-08-12T08:31:09.894Z,97142.25
2022-08-12T08:34:08.994Z,97151.44
2022-08-12T08:36:23.801Z,97146.59
2022-08-12T08:38:53.318Z,97147.38
2022-08-12T08:42:15.752Z,97142.53
2022-08-12T08:44:31.990Z,97138.41
2022-08-12T08:47:01.339Z,97146.84
2022-08-12T08:49:28.117Z,97144.09
2022-08-12T08:51:54.781Z,97138.53
2022-08-12T08:54:21.598Z,97145.59
2022-08-12T08:56:52.276Z,97130.19
2022-08-12T08:59:19.652Z,97127.44
2022-08-12T09:01:47.304Z,97133.06
2022-08-12T09:05:07.789Z,97128.94
2022-08-12T09:10:03.312Z,97119.16
2022-08-12T09:12:55.023Z,97120.59
2022-08-12T09:15:35.258Z,97119.22
2022-08-12T09:18:09.009Z,97127.63
2022-08-12T09:20:38.275Z,97131.22
2022-08-12T09:23:57.205Z,97133.44
2022-08-12T09:25:54.448Z,97127.09
2022-08-12T09:28:32.960Z,97122.91
2022-08-12T09:31:00.159Z,97134.84
2022-08-12T09:34:27.572Z,97129.28
2022-08-12T09:36:31.400Z,97118.78
2022-08-12T09:40:01.496Z,97126.50
2022-08-12T09:42:42.923Z,97111.03
2022-08-12T09:45:19.448Z,97120.19
2022-08-12T09:47:56.906Z,97121.59
2022-08-12T09:50:26.571Z,97111.78
2022-08-12T09:53:15.354Z,97115.25
2022-08-12T09:56:06.594Z,97116.66
2022-08-12T09:58:57.008Z,97115.28
2022-08-12T10:01:35.438Z,97119.47
2022-08-12T10:04:14.960Z,97116.69
2022-08-12T10:06:55.184Z,97118.09
2022-08-12T10:09:28.251Z,97116.72
2022-08-12T10:12:14.127Z,97108.28
2022-08-12T10:14:50.519Z,97106.91
2022-08-12T10:17:23.469Z,97095.69
2022-08-12T10:19:52.508Z,97109.72
2022-08-12T10:22:38.080Z,97095.69
2022-08-12T10:26:35.958Z,97099.91
2022-08-12T10:28:38.133Z,97109.03
2022-08-12T10:31:05.823Z,97099.19
2022-08-12T10:33:55.040Z,97092.88
2022-08-12T10:36:21.535Z,97096.38
2022-08-12T10:39:03.631Z,97090.06
2022-08-12T10:42:09.065Z,97099.91
2022-08-12T10:44:37.172Z,97095.72
2022-08-12T10:47:26.217Z,97095.69
2022-08-12T10:50:03.078Z,97096.41
2022-08-12T10:52:39.269Z,97095.69
2022-08-12T10:55:13.185Z,97080.25
2022-08-12T10:58:27.590Z,97083.03
2022-08-12T11:00:34.908Z,97102.75
2022-08-12T11:04:24.520Z,97092.91
2022-08-12T11:07:07.642Z,97080.97
2022-08-12T11:08:43.267Z,97085.88
2022-08-12T11:12:07.483Z,97073.19
2022-08-12T11:14:05.680Z,97073.91
2022-08-12T11:16:33.370Z,97067.56
2022-08-12T11:19:02.691Z,97060.53
2022-08-12T11:21:56.688Z,97069.66
2022-08-12T11:24:30.484Z,97067.56
2022-08-12T11:27:00.159Z,97056.28
2022-08-12T11:30:02.442Z,97061.94
2022-08-12T11:32:15.130Z,97064.03
2022-08-12T11:34:52.756Z,97054.84
2022-08-12T11:37:24.869Z,97043.56
2022-08-12T11:42:45.937Z,97036.44
2022-08-12T11:45:16.608Z,97039.25
2022-08-12T11:47:44.328Z,97036.44
2022-08-12T11:50:19.502Z,97027.28
2022-08-12T11:52:56.382Z,97037.09
2022-08-12T11:55:24.702Z,97035.66
2022-08-12T11:58:14.643Z,97026.44
2022-08-12T12:03:43.742Z,97044.00
2022-08-12T12:06:17.831Z,97023.56
2022-08-12T12:08:50.878Z,97027.03
2022-08-12T12:11:19.921Z,97023.47
2022-08-12T12:14:08.774Z,97030.53
2022-08-12T12:16:38.066Z,97024.22
2022-08-12T12:19:10.102Z,97018.53
2022-08-12T12:21:47.508Z,97015.69
2022-08-12T12:24:21.463Z,97027.66
2022-08-12T12:27:00.706Z,97019.22
2022-08-12T12:30:17.892Z,97021.97
2022-08-12T12:32:18.568Z,97011.25
2022-08-12T12:35:17.802Z,97021.06
2022-08-12T12:38:04.104Z,97017.53
2022-08-12T12:40:20.181Z,97025.25
2022-08-12T12:42:56.067Z,97018.22
2022-08-12T12:45:27.005Z,97017.59
2022-08-12T12:48:02.253Z,97010.56
2022-08-12T12:50:35.241Z,97015.47
2022-08-12T12:53:04.136Z,97010.47
2022-08-12T12:55:35.626Z,97009.69
2022-08-12T12:58:04.854Z,97001.94
2022-08-12T13:00:35.458Z,96999.13
2022-08-12T13:03:02.306Z,96989.19
2022-08-12T13:05:42.238Z,96989.16
2022-08-12T13:08:28.366Z,96989.88
2022-08-12T13:11:04.519Z,96987.66
2022-08-12T13:14:08.906Z,96984.72
2022-08-12T13:16:23.451Z,96987.47
2022-08-12T13:18:51.869Z,96983.88
2022-08-12T13:21:33.267Z,96977.50
2022-08-12T13:24:10.003Z,96976.03
2022-08-12T13:26:40.538Z,96982.25
2022-08-12T13:29:11.494Z,96977.25
2022-08-12T13:31:46.635Z,96972.94
2022-08-12T13:34:35.278Z,96964.25
2022-08-12T13:37:44.059Z,96963.47
2022-08-12T13:40:41.064Z,96983.16
2022-08-12T13:43:08.658Z,96976.75
2022-08-12T13:45:40.850Z,96977.47
2022-08-12T13:48:08.235Z,96966.91
2022-08-12T13:50:43.639Z,96971.72
2022-08-12T13:53:24.172Z,96972.25
2022-08-12T13:55:59.595Z,96960.16
2022-08-12T13:58:30.107Z,96960.81
2022-08-12T14:00:58.281Z,96969.22
2022-08-12T14:03:28.449Z,96958.63
2022-08-12T14:06:15.346Z,96956.50
2022-08-12T14:08:43.238Z,96957.94
2022-08-12T14:11:12.346Z,96950.16
2022-08-12T14:14:05.859Z,96951.59
2022-08-12T14:16:37.834Z,96950.22
2022-08-12T14:19:24.223Z,96948.13
2022-08-12T14:22:01.506Z,96943.19
2022-08-12T14:24:35.646Z,96942.53
2022-08-12T14:27:09.288Z,96945.41
2022-08-12T14:30:04.356Z,96943.16
2022-08-12T14:32:34.956Z,96928.19
2022-08-12T14:35:09.292Z,96934.47
2022-08-12T14:37:54.926Z,96931.16
2022-08-12T14:40:27.756Z,96921.97
2022-08-12T14:42:56.947Z,96930.22
2022-08-12T14:45:37.188Z,96921.69
2022-08-12T14:48:12.631Z,96930.91
2022-08-12T14:51:03.053Z,96934.53
2022-08-12T14:59:23.801Z,96926.91
2022-08-12T15:01:52.129Z,96922.63
2022-08-12T15:04:26.164Z,96931.69
2022-08-12T15:06:53.271Z,96938.69
2022-08-12T15:09:29.104Z,96915.28
2022-08-12T15:12:03.700Z,96925.75
2022-08-12T15:14:31.974Z,96923.50
2022-08-12T15:17:02.690Z,96914.97
2022-08-12T15:20:30.989Z,96907.81
2022-08-12T15:22:38.923Z,96917.63
2022-08-12T15:25:07.410Z,96928.22
2022-08-12T15:28:20.391Z,96915.16
2022-08-12T15:30:31.862Z,96913.69
2022-08-12T15:32:59.165Z,96918.31
2022-08-12T15:35:38.211Z,96911.34
2022-08-12T15:38:19.792Z,96908.91
2022-08-12T15:41:09.186Z,96906.31
2022-08-12T15:44:16.654Z,96915.88
2022-08-12T15:46:25.774Z,96910.34
2022-08-12T15:48:52.663Z,96906.00
2022-08-12T15:51:58.269Z,96918.69
2022-08-12T15:54:33.297Z,96912.75
2022-08-12T15:57:03.373Z,96906.75
2022-08-12T15:59:42.536Z,96897.78
2022-08-12T16:02:18.701Z,96883.13
2022-08-12T16:04:50.315Z,96889.88
2022-08-12T16:07:29.655Z,96879.31
2022-08-12T16:10:08.478Z,96888.06
2022-08-12T16:12:43.634Z,96886.75
2022-08-12T16:15:23.155Z,96885.31
2022-08-12T16:18:18.769Z,96884.13
2022-08-12T16:20:40.298Z,96882.09
2022-08-12T16:23:35.910Z,96886.53
2022-08-12T16:26:14.077Z,96884.13
2022-08-12T16:28:43.938Z,96883.41
2022-08-12T16:31:23.555Z,96876.78
2022-08-12T16:33:59.128Z,96869.63
2022-08-12T16:36:29.714Z,96863.13
2022-08-12T16:38:57.092Z,96862.94
2022-08-12T16:41:23.875Z,96873.25
2022-08-12T16:43:53.022Z,96868.69
2022-08-12T16:46:32.166Z,96872.28
2022-08-12T16:49:09.251Z,96867.38
2022-08-12T16:51:46.286Z,96869.06
2022-08-12T16:54:19.073Z,96871.50
2022-08-12T16:56:50.732Z,96880.69
2022-08-12T16:59:22.628Z,96885.84
2022-08-12T17:01:50.708Z,96882.66
2022-08-12T17:04:18.652Z,96889.81
2022-08-12T17:06:47.772Z,96877.28
2022-08-12T17:09:17.126Z,96887.13
2022-08-12T17:11:44.252Z,96882.34
2022-08-12T17:14:10.960Z,96876.03
2022-08-12T17:16:40.366Z,96876.13
2022-08-12T17:19:09.275Z,96878.91
2022-08-12T17:21:41.566Z,96882.16
2022-08-12T17:24:30.275Z,96883.50
2022-08-12T17:26:59.194Z,96876.16
2022-08-12T17:30:00.666Z,96877.91
2022-08-12T17:32:14.383Z,96890.56
2022-08-12T17:34:59.904Z,96874.72
2022-08-12T17:37:27.126Z,96877.09
2022-08-12T17:40:15.141Z,96871.94
2022-08-12T17:42:43.635Z,96881.25
2022-08-12T17:45:19.299Z,96870.34
2022-08-12T17:47:54.369Z,96889.31
2022-08-12T17:50:36.867Z,96878.28
2022-08-12T17:53:05.505Z,96881.34
2022-08-12T17:55:43.295Z,96889.28
2022-08-12T17:58:15.732Z,96885.19
2022-08-12T18:00:47.134Z,96897.31
2022-08-12T18:03:58.262Z,96891.81
2022-08-12T18:06:08.645Z,96888.44
2022-08-12T18:08:55.070Z,96897.72
2022-08-12T18:12:05.380Z,96902.75
2022-08-12T18:14:31.458Z,96910.59
2022-08-12T18:17:00.247Z,96905.81
2022-08-12T18:19:34.182Z,96912.28
2022-08-12T18:22:17.706Z,96913.75
2022-08-12T18:24:49.749Z,96920.91
2022-08-12T18:27:30.621Z,96924.44
2022-08-12T18:30:20.424Z,96924.47
2022-08-12T18:32:58.854Z,96916.03
2022-08-12T18:35:47.074Z,96926.69
2022-08-12T18:38:17.276Z,96928.19
2022-08-12T18:41:03.950Z,96925.41
2022-08-12T18:43:30.966Z,96928.19
2022-08-12T18:46:10.818Z,96926.78
2022-08-12T18:48:40.463Z,96932.47
2022-08-12T18:51:11.958Z,96927.56
2022-08-12T18:54:06.102Z,96932.47
2022-08-12T18:56:38.576Z,96936.03
2022-08-12T18:59:06.205Z,96933.91
2022-08-12T19:02:21.897Z,96931.81
2022-08-12T19:04:25.544Z,96939.59
2022-08-12T19:06:57.515Z,96939.63
2022-08-12T19:09:39.214Z,96943.88
2022-08-12T19:12:55.388Z,96941.09
2022-08-12T19:15:26.459Z,96939.69
2022-08-12T19:18:00.349Z,96944.63
2022-08-12T19:20:30.074Z,96939.72
2022-08-12T19:22:59.785Z,96941.16
2022-08-12T19:26:00.715Z,96938.34
2022-08-12T19:28:29.960Z,96941.88
2022-08-12T19:31:45.335Z,96951.72
2022-08-12T19:36:14.306Z,96958.03
2022-08-12T19:38:04.398Z,96955.25
2022-08-12T19:40:32.761Z,96953.81
2022-08-12T19:43:20.184Z,96956.63
2022-08-12T19:45:54.472Z,96961.56
2022-08-12T19:48:27.876Z,96961.56
2022-08-12T19:50:57.999Z,96965.75
2022-08-12T19:53:27.512Z,96962.97
2022-08-12T19:55:56.088Z,96965.75
2022-08-12T19:58:24.872Z,96968.56
2022-08-12T20:00:53.651Z,96967.84
2022-08-12T20:03:39.939Z,96960.13
2022-08-12T20:06:21.928Z,96961.53
2022-08-12T20:08:56.582Z,96969.25
2022-08-12T20:12:13.027Z,96967.84
2022-08-12T20:14:18.118Z,96960.06
2022-08-12T20:16:51.900Z,96962.16
2022-08-12T20:19:20.879Z,96961.44
2022-08-12T20:21:50.184Z,96967.72
2022-08-12T20:24:16.855Z,96962.78
2022-08-12T20:26:46.453Z,96956.50
2022-08-12T20:29:13.510Z,96956.44
2022-08-12T20:31:40.684Z,96953.63
2022-08-12T20:34:08.876Z,96971.13
2022-08-12T20:36:44.203Z,96961.28
2022-08-12T20:39:33.775Z,96964.03
2022-08-12T20:42:07.286Z,96961.22
2022-08-12T20:44:40.818Z,96966.78
2022-08-12T20:47:17.815Z,96970.97
2022-08-12T20:49:46.652Z,96967.44
2022-08-12T20:52:24.455Z,96974.38
2022-08-12T20:54:51.498Z,96972.97
2022-08-12T20:57:20.318Z,96965.91
2022-08-12T20:59:52.495Z,96958.19
2022-08-12T21:02:24.513Z,96963.75
2022-08-12T21:05:20.221Z,96958.81
2022-08-12T21:07:51.528Z,96951.03
2022-08-12T21:10:21.028Z,96957.31
2022-08-12T21:12:48.669Z,96953.06
2022-08-12T21:15:23.139Z,96960.03
2022-08-12T21:18:11.280Z,96966.28
2022-08-12T21:20:52.535Z,96950.84
2022-08-12T21:23:21.364Z,96960.69
2022-08-12T21:25:50.978Z,96958.50
2022-08-12T21:28:20.667Z,96956.34
2022-08-12T21:31:10.642Z,96958.41
2022-08-12T21:33:58.640Z,96958.38
2022-08-12T21:36:34.825Z,96958.31
2022-08-12T21:39:20.280Z,96956.88
2022-08-12T21:41:56.526Z,96956.81
2022-08-12T21:45:47.692Z,96957.50
2022-08-12T21:47:21.813Z,96951.84
2022-08-12T21:50:06.353Z,96954.59
2022-08-12T21:52:40.432Z,96955.25
2022-08-12T21:55:19.032Z,96949.63
2022-08-12T21:57:54.565Z,96955.88
2022-08-12T22:00:35.192Z,96952.38
2022-08-12T22:04:04.065Z,96960.69
2022-08-12T22:06:26.501Z,96957.88
2022-08-12T22:09:08.126Z,96963.41
2022-08-12T22:11:42.174Z,96954.25
2022-08-12T22:14:17.956Z,96956.34
2022-08-12T22:16:52.290Z,96965.38
2022-08-12T22:19:21.517Z,96964.63
2022-08-12T22:21:54.767Z,96962.50
2022-08-12T22:24:26.483Z,96966.66
2022-08-12T22:27:28.209Z,96968.69
2022-08-12T22:30:16.776Z,96961.00
2022-08-12T22:32:50.660Z,96961.63
2022-08-12T22:35:55.954Z,96956.66
2022-08-12T22:38:24.100Z,96957.31
2022-08-12T22:40:54.135Z,96964.25
2022-08-12T22:44:00.060Z,96964.25
2022-08-12T22:46:32.870Z,96964.91
2022-08-12T22:48:59.624Z,96969.03
2022-08-12T22:51:26.722Z,96977.41
2022-08-12T22:53:56.155Z,96968.28
2022-08-12T22:56:31.027Z,96963.34
2022-08-12T22:59:02.595Z,96971.69
2022-08-12T23:01:52.667Z,96972.34
2022-08-12T23:04:28.726Z,96968.16
2022-08-12T23:06:57.317Z,96972.97
2022-08-12T23:09:44.966Z,96972.22
2022-08-12T23:12:34.823Z,96965.22
2022-08-12T23:15:05.167Z,96964.44
2022-08-12T23:17:41.175Z,96962.28
2022-08-12T23:20:11.285Z,96963.66
2022-08-12T23:22:38.710Z,96959.41
2022-08-12T23:25:19.138Z,96959.34
2022-08-12T23:28:30.153Z,96952.31
2022-08-12T23:31:04.102Z,96957.84
2022-08-12T23:34:01.557Z,96950.78
2022-08-12T23:36:39.083Z,96950.72
2022-08-12T23:40:14.451Z,96947.84
2022-08-12T23:42:16.884Z,96951.28
2022-08-12T23:44:46.029Z,96954.75
2022-08-12T23:47:14.160Z,96953.28
2022-08-12T23:49:57.075Z,96956.88
2022-08-12T23:52:28.703Z,96960.22
2022-08-12T23:55:05.037Z,96949.63
2022-08-12T23:58:17.734Z,96953.00
